Time;durP1;ratioP1;P1;durP2;ratioP2;P2;SDS_P1;SDS_P2;PMS_P1;PMS_P2;Temp;Humidity;BMP_temperature;BMP_pressure;BME280_temperature;BME280_humidity;BME280_pressure;Samples;Min_cycle;Max_cycle;Signal;HPM_P1;HPM_P2
2022/03/02 00:01:14;;;;;;;19.67;10.63;;;-1.70;99.90;;;;;;5056021;28;20597;-73
2022/03/02 00:03:41;;;;;;;16.98;10.02;;;-1.70;99.90;;;;;;5062545;28;20056;-72
2022/03/02 00:06:07;;;;;;;21.05;10.55;;;-1.70;99.90;;;;;;5064391;28;20283;-73
2022/03/02 00:08:33;;;;;;;21.98;10.27;;;-1.70;99.90;;;;;;5051712;28;20490;-73
2022/03/02 00:10:58;;;;;;;20.77;10.77;;;-1.70;99.90;;;;;;5062914;28;20090;-72
2022/03/02 00:13:24;;;;;;;17.42;9.63;;;-1.70;99.90;;;;;;5070834;28;20029;-72
2022/03/02 00:15:50;;;;;;;17.38;10.07;;;-1.80;99.90;;;;;;5055531;28;20083;-74
2022/03/02 00:18:15;;;;;;;23.50;11.13;;;-1.80;99.90;;;;;;5051825;28;20059;-73
2022/03/02 00:20:41;;;;;;;21.77;11.60;;;-1.80;99.90;;;;;;5059927;28;20036;-74
2022/03/02 00:23:07;;;;;;;20.30;11.10;;;-1.80;99.90;;;;;;5070834;28;20020;-73
2022/03/02 00:25:32;;;;;;;20.27;11.25;;;-1.80;99.90;;;;;;5071122;28;20400;-73
2022/03/02 00:27:58;;;;;;;28.17;11.02;;;-1.80;99.90;;;;;;5066799;28;20502;-74
2022/03/02 00:30:28;;;;;;;19.05;10.63;;;-1.60;99.90;;;;;;5051722;28;20021;-74
2022/03/02 00:32:54;;;;;;;20.52;10.70;;;-1.60;99.90;;;;;;5050839;28;20041;-73
2022/03/02 00:35:20;;;;;;;21.98;10.68;;;-1.50;99.90;;;;;;5051444;28;20037;-73
2022/03/02 00:37:46;;;;;;;22.17;10.40;;;-1.30;99.90;;;;;;5055823;28;20047;-72
2022/03/02 00:40:13;;;;;;;20.58;10.88;;;-1.30;99.90;;;;;;5069630;28;20052;-73
2022/03/02 00:42:39;;;;;;;18.55;10.38;;;-1.20;99.90;;;;;;5050674;28;20037;-74
2022/03/02 00:45:05;;;;;;;20.88;10.32;;;-1.20;99.90;;;;;;5050804;28;20116;-74
2022/03/02 00:47:31;;;;;;;20.08;10.77;;;-1.20;99.90;;;;;;5050841;28;20462;-74
2022/03/02 00:49:58;;;;;;;19.02;10.77;;;-1.20;99.90;;;;;;5054400;28;20050;-73
2022/03/02 00:52:24;;;;;;;20.05;11.60;;;-1.20;99.90;;;;;;5069973;28;20029;-74
2022/03/02 00:54:49;;;;;;;22.52;12.40;;;-1.20;99.90;;;;;;5068172;28;20119;-73
2022/03/02 00:57:15;;;;;;;25.08;12.10;;;-1.10;99.90;;;;;;5048869;28;20025;-73
2022/03/02 00:59:41;;;;;;;23.85;11.52;;;-1.10;99.90;;;;;;5051974;28;20132;-72
2022/03/02 01:02:06;;;;;;;28.40;13.05;;;-1.10;99.90;;;;;;5054005;28;20118;-72
2022/03/02 01:04:32;;;;;;;19.73;10.90;;;-1.10;99.90;;;;;;5051449;28;20127;-72
2022/03/02 01:06:58;;;;;;;21.73;11.63;;;-1.00;99.90;;;;;;5061001;28;20048;-72
2022/03/02 01:09:24;;;;;;;21.17;11.25;;;-1.00;99.90;;;;;;5052209;28;20090;-72
2022/03/02 01:11:49;;;;;;;20.23;11.27;;;-1.00;99.90;;;;;;5069403;28;20028;-71
2022/03/02 01:14:15;;;;;;;21.30;12.40;;;-1.00;99.90;;;;;;5070788;28;20020;-72
2022/03/02 01:16:41;;;;;;;19.17;9.82;;;-1.10;99.90;;;;;;5070072;28;20036;-72
2022/03/02 01:19:07;;;;;;;18.88;10.70;;;-1.10;99.90;;;;;;5061300;28;20037;-72
2022/03/02 01:21:32;;;;;;;21.77;11.65;;;-1.10;99.90;;;;;;5068930;28;20056;-71
2022/03/02 01:23:59;;;;;;;21.38;10.95;;;-1.10;99.90;;;;;;5070267;28;20465;-72
2022/03/02 01:26:26;;;;;;;21.10;11.85;;;-1.10;99.90;;;;;;5056746;28;20029;-72
2022/03/02 01:28:56;;;;;;;23.40;11.77;;;-1.10;99.90;;;;;;5049671;28;20048;-71
2022/03/02 01:31:23;;;;;;;19.40;10.98;;;-1.10;99.90;;;;;;5060620;28;20043;-73
2022/03/02 01:33:50;;;;;;;19.70;11.35;;;-1.20;99.90;;;;;;5069176;28;20039;-71
2022/03/02 01:36:15;;;;;;;22.38;11.25;;;-1.20;99.90;;;;;;5070567;28;20103;-74
2022/03/02 01:38:41;;;;;;;20.25;10.15;;;-1.20;99.90;;;;;;5070954;28;20116;-74
2022/03/02 01:41:07;;;;;;;18.60;10.18;;;-1.20;99.90;;;;;;5057264;28;20029;-72
2022/03/02 01:43:32;;;;;;;16.63;9.85;;;-1.20;99.90;;;;;;5050521;28;20021;-73
2022/03/02 01:45:58;;;;;;;17.50;10.05;;;-1.20;99.90;;;;;;5049563;28;20529;-72
2022/03/02 01:48:24;;;;;;;15.73;9.32;;;-1.20;99.90;;;;;;5054528;28;20063;-72
2022/03/02 01:50:49;;;;;;;17.15;10.23;;;-1.30;99.90;;;;;;5062614;28;20100;-71
2022/03/02 01:53:15;;;;;;;21.25;10.88;;;-1.30;99.90;;;;;;5050348;28;20469;-72
2022/03/02 01:55:41;;;;;;;21.63;11.48;;;-1.40;99.90;;;;;;5049225;28;20025;-72
2022/03/02 01:58:06;;;;;;;20.90;10.98;;;-1.40;99.90;;;;;;5056207;28;20044;-72
2022/03/02 02:00:32;;;;;;;20.45;11.00;;;-1.40;99.90;;;;;;5069720;28;20531;-72
2022/03/02 02:02:58;;;;;;;18.35;9.85;;;-1.40;99.90;;;;;;5060144;28;20037;-72
2022/03/02 02:05:23;;;;;;;17.98;10.70;;;-1.50;99.90;;;;;;5050251;28;20060;-73
2022/03/02 02:07:49;;;;;;;18.85;10.43;;;-1.60;99.90;;;;;;5057150;28;20131;-71
2022/03/02 02:10:16;;;;;;;20.20;11.02;;;-1.60;99.90;;;;;;5070725;28;20025;-72
2022/03/02 02:12:42;;;;;;;17.77;10.13;;;-1.70;99.90;;;;;;5035607;28;20116;-73
2022/03/02 02:15:09;;;;;;;26.55;12.20;;;-1.80;99.90;;;;;;5045402;28;20438;-72
2022/03/02 02:17:35;;;;;;;18.33;10.27;;;-1.80;99.90;;;;;;5064978;28;20032;-73
2022/03/02 02:20:01;;;;;;;23.00;10.82;;;-1.80;99.90;;;;;;5054806;28;20131;-72
2022/03/02 02:22:27;;;;;;;21.33;12.13;;;-1.80;99.90;;;;;;5053470;28;20504;-72
2022/03/02 02:24:53;;;;;;;18.63;10.70;;;-1.90;99.90;;;;;;5053232;28;20060;-71
2022/03/02 02:27:18;;;;;;;16.92;9.77;;;-1.90;99.90;;;;;;5054972;28;20156;-72
2022/03/02 02:29:47;;;;;;;16.52;9.65;;;-2.00;99.90;;;;;;5070934;28;20110;-72
2022/03/02 02:32:13;;;;;;;15.43;9.32;;;-2.10;99.90;;;;;;5052290;28;20132;-72
2022/03/02 02:34:40;;;;;;;19.75;11.30;;;-2.20;99.90;;;;;;5053512;28;20107;-72
2022/03/02 02:37:07;;;;;;;22.35;11.70;;;-2.20;99.90;;;;;;5069743;28;20024;-72
2022/03/02 02:39:35;;;;;;;20.88;11.82;;;-2.30;99.90;;;;;;5070578;28;20420;-72
2022/03/02 02:42:06;;;;;;;25.27;12.43;;;-2.30;99.90;;;;;;5055225;28;20490;-72
2022/03/02 02:44:34;;;;;;;20.88;11.75;;;-2.30;99.90;;;;;;5053051;28;20033;-72
2022/03/02 02:46:59;;;;;;;19.27;10.27;;;-2.20;99.90;;;;;;5069245;28;20036;-72
2022/03/02 02:49:25;;;;;;;20.92;10.98;;;-2.30;99.90;;;;;;5070491;28;20157;-72
2022/03/02 02:51:53;;;;;;;17.02;9.48;;;-2.30;99.90;;;;;;5052666;28;20537;-72
2022/03/02 02:54:20;;;;;;;19.00;10.00;;;-2.30;99.90;;;;;;5071323;28;20380;-73
2022/03/02 02:56:46;;;;;;;20.35;10.60;;;-2.40;99.90;;;;;;5064645;28;20095;-73
2022/03/02 02:59:11;;;;;;;20.58;10.68;;;-2.40;99.90;;;;;;5058162;28;20666;-72
2022/03/02 03:01:37;;;;;;;15.73;9.55;;;-2.50;99.90;;;;;;5072203;28;20032;-73
2022/03/02 03:04:03;;;;;;;20.60;10.75;;;-2.50;99.90;;;;;;5071824;28;20028;-72
2022/03/02 03:06:29;;;;;;;21.63;10.57;;;-2.50;99.90;;;;;;5073200;28;20036;-73
2022/03/02 03:08:55;;;;;;;19.83;11.45;;;-2.50;99.90;;;;;;5066833;28;20370;-72
2022/03/02 03:11:21;;;;;;;22.00;10.93;;;-2.60;99.90;;;;;;5048198;28;20104;-73
2022/03/02 03:13:47;;;;;;;18.63;10.85;;;-2.50;99.90;;;;;;5052910;28;20128;-74
2022/03/02 03:16:12;;;;;;;21.40;10.93;;;-2.40;99.90;;;;;;5051809;28;20037;-73
2022/03/02 03:18:38;;;;;;;19.10;9.75;;;-2.40;99.90;;;;;;5035305;28;20120;-73
2022/03/02 03:21:04;;;;;;;17.98;10.23;;;-2.40;99.90;;;;;;5071672;28;20021;-73
2022/03/02 03:23:29;;;;;;;19.38;10.10;;;-2.40;99.90;;;;;;5072938;28;20029;-73
2022/03/02 03:25:55;;;;;;;16.33;10.00;;;-2.50;99.90;;;;;;5052228;28;20025;-72
2022/03/02 03:28:21;;;;;;;19.70;9.95;;;-2.50;99.90;;;;;;5052514;28;20064;-73
2022/03/02 03:30:46;;;;;;;27.10;10.38;;;-2.60;99.90;;;;;;5052651;28;20068;-72
2022/03/02 03:33:12;;;;;;;19.50;11.45;;;-2.60;99.90;;;;;;5051417;28;20044;-72
2022/03/02 03:35:38;;;;;;;23.02;11.00;;;-2.60;99.90;;;;;;5051576;28;20061;-72
2022/03/02 03:38:04;;;;;;;21.20;10.90;;;-2.60;99.90;;;;;;5064789;28;20032;-72
2022/03/02 03:40:29;;;;;;;19.35;11.57;;;-2.50;99.90;;;;;;5052716;28;20025;-72
2022/03/02 03:42:56;;;;;;;19.73;10.98;;;-2.60;99.90;;;;;;5051427;28;20025;-71
2022/03/02 03:45:22;;;;;;;18.13;10.75;;;-2.60;99.90;;;;;;5052101;28;20021;-72
2022/03/02 03:47:48;;;;;;;19.40;10.60;;;-2.60;99.90;;;;;;5053221;28;20041;-72
2022/03/02 03:50:14;;;;;;;21.17;10.98;;;-2.60;99.90;;;;;;5069779;28;20068;-72
2022/03/02 03:52:40;;;;;;;21.33;11.50;;;-2.60;99.90;;;;;;5058645;28;20134;-72
2022/03/02 03:55:08;;;;;;;19.27;11.00;;;-2.60;99.90;;;;;;5070893;28;20100;-73
2022/03/02 03:57:34;;;;;;;18.73;10.55;;;-2.70;99.90;;;;;;5071519;28;20112;-72
2022/03/02 04:00:00;;;;;;;20.27;10.90;;;-2.70;99.90;;;;;;5064414;28;20533;-72
2022/03/02 04:02:26;;;;;;;24.02;12.02;;;-2.80;99.90;;;;;;5051718;28;20124;-72
2022/03/02 04:04:51;;;;;;;19.50;10.20;;;-2.80;99.90;;;;;;5069201;28;20081;-72
2022/03/02 04:07:17;;;;;;;19.45;10.88;;;-2.90;99.90;;;;;;5052025;28;20025;-72
2022/03/02 04:09:43;;;;;;;19.65;10.82;;;-2.90;99.90;;;;;;5065943;28;20028;-72
2022/03/02 04:12:08;;;;;;;21.38;11.55;;;-2.90;99.90;;;;;;5052481;28;20056;-71
2022/03/02 04:14:34;;;;;;;21.48;10.05;;;-2.90;99.90;;;;;;5068494;28;20378;-72
2022/03/02 04:17:00;;;;;;;20.05;11.05;;;-2.90;99.90;;;;;;5070734;28;20107;-71
2022/03/02 04:19:25;;;;;;;16.33;9.43;;;-2.90;99.90;;;;;;5056760;28;20178;-72
2022/03/02 04:21:51;;;;;;;22.35;10.65;;;-2.90;99.90;;;;;;5055544;28;20457;-73
2022/03/02 04:24:16;;;;;;;23.38;11.23;;;-3.00;99.90;;;;;;5059888;28;20440;-72
2022/03/02 04:26:42;;;;;;;25.20;11.82;;;-3.00;99.90;;;;;;5053816;28;20129;-73
2022/03/02 04:29:08;;;;;;;25.67;12.55;;;-3.00;99.90;;;;;;5062318;28;20032;-74
2022/03/02 04:31:33;;;;;;;24.23;11.85;;;-3.10;99.90;;;;;;5070818;28;20085;-73
2022/03/02 04:33:59;;;;;;;23.02;12.27;;;-3.00;99.90;;;;;;5058010;28;20441;-72
2022/03/02 04:36:24;;;;;;;21.63;11.55;;;-3.00;99.90;;;;;;5051517;28;20027;-73
2022/03/02 04:38:50;;;;;;;20.45;11.23;;;-3.00;99.90;;;;;;5062560;28;20051;-73
2022/03/02 04:41:16;;;;;;;20.88;11.48;;;-2.90;99.90;;;;;;5062779;28;20021;-74
2022/03/02 04:43:43;;;;;;;25.70;11.95;;;-2.90;99.90;;;;;;5054832;28;20527;-73
2022/03/02 04:46:08;;;;;;;19.63;10.82;;;-2.90;99.90;;;;;;5050537;28;20033;-73
2022/03/02 04:48:34;;;;;;;19.23;10.45;;;-2.80;99.90;;;;;;5051252;28;20033;-72
2022/03/02 04:51:00;;;;;;;21.88;11.43;;;-2.80;99.90;;;;;;5049029;28;20355;-73
2022/03/02 04:53:25;;;;;;;22.70;11.25;;;-2.80;99.90;;;;;;5058102;28;20023;-73
2022/03/02 04:55:52;;;;;;;19.17;11.20;;;-2.90;99.90;;;;;;5071743;28;20020;-73
2022/03/02 04:58:18;;;;;;;21.33;10.82;;;-2.90;99.90;;;;;;5069446;28;20057;-73
2022/03/02 05:00:44;;;;;;;21.65;11.77;;;-3.00;99.90;;;;;;5071040;28;20477;-73
2022/03/02 05:03:10;;;;;;;20.02;11.60;;;-3.00;99.90;;;;;;5039401;28;20036;-72
2022/03/02 05:05:37;;;;;;;19.88;11.25;;;-3.10;99.90;;;;;;5070568;28;20058;-73
2022/03/02 05:08:04;;;;;;;25.52;11.88;;;-3.10;99.90;;;;;;5069730;28;20029;-71
2022/03/02 05:10:30;;;;;;;22.92;11.80;;;-3.20;99.90;;;;;;5071610;28;20086;-72
2022/03/02 05:12:56;;;;;;;23.25;11.90;;;-3.30;99.90;;;;;;5071151;28;20041;-71
2022/03/02 05:15:23;;;;;;;25.60;12.38;;;-3.30;99.90;;;;;;5064131;28;20028;-71
2022/03/02 05:17:49;;;;;;;21.63;12.05;;;-3.30;99.90;;;;;;5051507;28;20040;-71
2022/03/02 05:20:16;;;;;;;27.50;12.60;;;-3.30;99.90;;;;;;5057086;28;20049;-72
2022/03/02 05:22:43;;;;;;;29.90;14.52;;;-3.30;99.90;;;;;;5051569;28;20079;-72
2022/03/02 05:25:10;;;;;;;26.65;14.43;;;-3.30;99.90;;;;;;5065849;28;20606;-73
2022/03/02 05:27:36;;;;;;;23.50;12.50;;;-3.30;99.90;;;;;;5071404;28;20044;-71
2022/03/02 05:30:03;;;;;;;27.25;13.93;;;-3.30;99.90;;;;;;5057857;28;20040;-72
2022/03/02 05:32:29;;;;;;;24.48;12.35;;;-3.30;99.90;;;;;;5051369;28;20033;-71
2022/03/02 05:34:55;;;;;;;25.73;12.85;;;-3.20;99.90;;;;;;5065766;28;20028;-72
2022/03/02 05:37:21;;;;;;;25.42;13.18;;;-3.20;99.90;;;;;;5061589;28;20037;-73
2022/03/02 05:39:46;;;;;;;25.73;12.32;;;-3.10;99.90;;;;;;5050479;28;20478;-73
2022/03/02 05:42:12;;;;;;;23.33;12.40;;;-3.00;99.90;;;;;;5053603;28;20021;-73
2022/03/02 05:44:38;;;;;;;23.80;12.07;;;-3.00;99.90;;;;;;5066866;28;20028;-73
2022/03/02 05:47:04;;;;;;;24.27;13.00;;;-3.00;99.90;;;;;;5073646;28;20040;-72
2022/03/02 05:49:30;;;;;;;23.95;12.63;;;-3.00;99.90;;;;;;5063650;28;20033;-73
2022/03/02 05:51:56;;;;;;;23.52;12.48;;;-3.00;99.90;;;;;;5054664;28;20039;-72
2022/03/02 05:54:22;;;;;;;20.95;12.27;;;-3.00;99.90;;;;;;5062520;28;20024;-73
2022/03/02 05:56:47;;;;;;;24.63;12.98;;;-3.00;99.90;;;;;;5069516;28;20033;-72
2022/03/02 05:59:16;;;;;;;24.50;12.38;;;-2.90;99.90;;;;;;5054133;28;20091;-73
2022/03/02 06:01:42;;;;;;;24.73;13.30;;;-2.90;99.90;;;;;;5054975;28;20033;-73
2022/03/02 06:04:07;;;;;;;22.92;12.32;;;-2.90;99.90;;;;;;5061301;28;20024;-73
2022/03/02 06:06:35;;;;;;;24.20;12.85;;;-2.80;99.90;;;;;;5074759;28;20025;-73
2022/03/02 06:09:03;;;;;;;23.80;13.77;;;-2.80;99.90;;;;;;5054026;28;20120;-72
2022/03/02 06:11:29;;;;;;;32.97;14.82;;;-2.70;99.90;;;;;;5054122;28;20068;-73
2022/03/02 06:13:56;;;;;;;26.35;13.73;;;-2.70;99.90;;;;;;5068712;28;20071;-74
2022/03/02 06:16:22;;;;;;;22.58;12.55;;;-2.60;99.90;;;;;;5053854;28;20021;-74
2022/03/02 06:18:48;;;;;;;24.77;14.25;;;-2.50;99.90;;;;;;5070954;28;20043;-73
2022/03/02 06:21:24;;;;;;;25.10;12.02;;;-2.50;99.90;;;;;;5073976;28;20529;-73
2022/03/02 06:23:50;;;;;;;24.90;13.13;;;-2.40;99.90;;;;;;5066444;28;20116;-76
2022/03/02 06:26:18;;;;;;;24.10;12.52;;;-2.40;99.90;;;;;;5052516;28;20117;-73
2022/03/02 06:28:47;;;;;;;26.02;13.10;;;-2.30;99.90;;;;;;5069569;28;20045;-72
2022/03/02 06:31:15;;;;;;;31.40;14.48;;;-2.30;99.90;;;;;;5071969;28;20032;-72
2022/03/02 06:33:41;;;;;;;33.70;14.73;;;-2.20;99.90;;;;;;5066856;28;20482;-72
2022/03/02 06:36:07;;;;;;;35.88;15.40;;;-2.10;99.90;;;;;;5061549;28;20109;-72
2022/03/02 06:38:33;;;;;;;28.25;14.98;;;-2.00;99.90;;;;;;5067927;28;20029;-73
2022/03/02 06:41:24;;;;;;;30.85;13.68;;;-1.80;99.90;;;;;;5053848;28;20531;-83
2022/03/02 06:44:04;;;;;;;30.40;14.75;;;-1.60;99.90;;;;;;5033568;28;20098;-74
2022/03/02 06:46:39;;;;;;;26.77;13.93;;;-1.50;99.90;;;;;;5061759;28;20028;-73
2022/03/02 06:49:28;;;;;;;26.02;13.68;;;-1.30;99.90;;;;;;5073269;28;20032;-76
2022/03/02 06:51:58;;;;;;;27.45;13.73;;;-1.30;99.90;;;;;;5055523;28;20466;-75
2022/03/02 06:54:27;;;;;;;27.92;14.57;;;-1.20;99.90;;;;;;5058982;28;20155;-75
2022/03/02 06:56:57;;;;;;;24.08;12.88;;;-1.10;99.90;;;;;;5071993;28;20428;-74
2022/03/02 06:59:38;;;;;;;26.85;14.30;;;-1.10;99.90;;;;;;5076398;28;20198;-75
2022/03/02 07:02:05;;;;;;;29.73;14.38;;;-1.00;99.90;;;;;;5073249;28;20043;-73
2022/03/02 07:04:41;;;;;;;24.15;13.55;;;-0.80;99.90;;;;;;5056961;28;20048;-77
2022/03/02 07:07:08;;;;;;;26.60;14.32;;;-0.70;99.90;;;;;;5064079;28;20024;-75
2022/03/02 07:09:34;;;;;;;24.88;13.90;;;-0.60;99.90;;;;;;5060370;28;20077;-72
2022/03/02 07:12:01;;;;;;;27.15;13.93;;;-0.50;99.90;;;;;;5053269;28;20037;-81
2022/03/02 07:14:31;;;;;;;28.08;13.55;;;-0.40;99.90;;;;;;5053841;28;20033;-73
2022/03/02 07:17:02;;;;;;;24.67;13.15;;;-0.30;99.90;;;;;;5054163;28;20025;-73
2022/03/02 07:19:28;;;;;;;28.80;13.18;;;-0.10;99.90;;;;;;5052786;28;20036;-73
2022/03/02 07:21:55;;;;;;;26.63;13.15;;;0.00;99.90;;;;;;5053390;28;20830;-73
2022/03/02 07:24:22;;;;;;;30.30;14.57;;;0.10;99.90;;;;;;5050764;28;20781;-72
2022/03/02 07:26:56;;;;;;;23.60;13.73;;;0.20;99.90;;;;;;5070852;28;20032;-72
2022/03/02 07:29:24;;;;;;;30.65;14.80;;;0.30;99.90;;;;;;5072270;28;20074;-72
2022/03/02 07:31:53;;;;;;;25.52;14.85;;;0.40;99.90;;;;;;5069866;28;20052;-72
2022/03/02 07:34:19;;;;;;;26.27;13.63;;;0.40;99.90;;;;;;5067836;28;20103;-71
2022/03/02 07:36:45;;;;;;;29.17;14.45;;;0.50;99.90;;;;;;5072638;28;20053;-72
2022/03/02 07:39:12;;;;;;;25.30;14.07;;;0.60;99.90;;;;;;5070744;28;20052;-72
2022/03/02 07:41:38;;;;;;;24.40;14.27;;;0.80;99.90;;;;;;5072591;28;20060;-73
2022/03/02 07:44:04;;;;;;;28.77;14.57;;;0.80;99.90;;;;;;5061245;28;20029;-73
2022/03/02 07:46:30;;;;;;;27.05;14.18;;;0.80;99.90;;;;;;5058345;28;20021;-73
2022/03/02 07:48:56;;;;;;;28.25;14.43;;;0.80;99.90;;;;;;5071946;28;20035;-73
2022/03/02 07:51:24;;;;;;;21.45;13.60;;;0.80;99.90;;;;;;5071229;28;20557;-72
2022/03/02 07:53:51;;;;;;;27.88;13.98;;;0.90;99.90;;;;;;5061038;28;20037;-73
2022/03/02 07:56:20;;;;;;;23.65;13.40;;;1.00;99.90;;;;;;5060736;28;20040;-73
2022/03/02 07:58:46;;;;;;;28.50;14.77;;;1.00;99.90;;;;;;5052562;28;20045;-73
2022/03/02 08:01:16;;;;;;;22.95;13.23;;;1.10;99.90;;;;;;5066931;28;20067;-73
2022/03/02 08:03:43;;;;;;;23.98;13.10;;;1.10;99.90;;;;;;5058516;28;20033;-72
2022/03/02 08:06:09;;;;;;;26.83;15.13;;;1.10;99.90;;;;;;5058849;28;20052;-73
2022/03/02 08:08:35;;;;;;;30.08;15.10;;;1.10;99.90;;;;;;5060344;28;20040;-72
2022/03/02 08:11:02;;;;;;;25.77;14.10;;;1.20;99.90;;;;;;5055727;28;20035;-72
2022/03/02 08:13:30;;;;;;;24.98;14.68;;;1.30;99.90;;;;;;5062363;28;20135;-73
2022/03/02 08:15:56;;;;;;;27.27;14.18;;;1.40;99.90;;;;;;5061759;28;20064;-73
2022/03/02 08:18:22;;;;;;;28.17;15.55;;;1.50;99.90;;;;;;5057981;28;20551;-72
2022/03/02 08:20:49;;;;;;;29.90;14.57;;;1.60;99.60;;;;;;5060821;28;20029;-73
2022/03/02 08:23:19;;;;;;;27.38;15.52;;;1.70;99.40;;;;;;5056391;28;20040;-73
2022/03/02 08:25:52;;;;;;;25.45;14.85;;;1.80;99.10;;;;;;5067706;28;20039;-72
2022/03/02 08:28:19;;;;;;;26.30;14.80;;;1.90;98.40;;;;;;5055105;28;20049;-72
2022/03/02 08:30:52;;;;;;;25.25;14.95;;;2.10;97.80;;;;;;5051678;28;20033;-72
2022/03/02 08:33:27;;;;;;;27.02;14.70;;;2.20;97.90;;;;;;5054696;28;20098;-73
2022/03/02 08:35:54;;;;;;;25.08;14.27;;;2.20;97.40;;;;;;5053974;28;20058;-73
2022/03/02 08:38:21;;;;;;;24.85;14.68;;;2.30;97.60;;;;;;5050151;28;20028;-73
2022/03/02 08:40:47;;;;;;;25.30;15.43;;;2.40;97.30;;;;;;5063266;28;20500;-72
2022/03/02 08:43:16;;;;;;;24.45;14.45;;;2.50;96.80;;;;;;5058795;28;20025;-72
2022/03/02 08:45:50;;;;;;;28.35;15.60;;;2.70;96.70;;;;;;5067246;28;20021;-72
2022/03/02 08:48:17;;;;;;;29.60;15.18;;;2.90;96.00;;;;;;5060631;28;20358;-72
2022/03/02 08:50:43;;;;;;;26.48;14.57;;;3.10;95.40;;;;;;5062238;28;20393;-72
2022/03/02 08:53:14;;;;;;;29.08;15.85;;;3.30;94.20;;;;;;5070691;28;20029;-72
2022/03/02 08:55:41;;;;;;;30.50;16.80;;;3.50;93.30;;;;;;5056186;28;20033;-72
2022/03/02 08:58:08;;;;;;;30.55;15.50;;;3.70;92.60;;;;;;5051002;28;20060;-72
2022/03/02 09:00:34;;;;;;;26.85;15.57;;;3.80;91.80;;;;;;5050634;28;20033;-72
2022/03/02 09:03:01;;;;;;;28.70;14.43;;;3.80;91.30;;;;;;5065827;28;20149;-72
2022/03/02 09:05:28;;;;;;;26.13;15.23;;;3.90;91.20;;;;;;5066429;28;20197;-72
2022/03/02 09:07:55;;;;;;;28.58;15.93;;;4.00;91.60;;;;;;5058706;28;20021;-71
2022/03/02 09:10:22;;;;;;;29.25;15.43;;;4.10;90.50;;;;;;5050302;28;20072;-71
2022/03/02 09:12:49;;;;;;;24.27;14.77;;;4.20;90.20;;;;;;5050940;28;20037;-72
2022/03/02 09:15:15;;;;;;;27.63;15.73;;;4.30;90.00;;;;;;5066543;28;20373;-72
2022/03/02 09:17:41;;;;;;;31.08;16.42;;;4.40;87.90;;;;;;5074324;28;20028;-72
2022/03/02 09:20:09;;;;;;;27.15;15.68;;;4.60;86.60;;;;;;5073947;28;20035;-73
2022/03/02 09:22:37;;;;;;;30.33;15.77;;;4.60;84.80;;;;;;5060102;28;20029;-72
2022/03/02 09:25:06;;;;;;;28.08;15.27;;;4.70;85.60;;;;;;5067008;28;20033;-71
2022/03/02 09:27:33;;;;;;;28.30;15.32;;;4.90;84.70;;;;;;5060427;28;20505;-72
2022/03/02 09:30:00;;;;;;;30.00;15.90;;;5.20;82.20;;;;;;5058285;28;20103;-72
2022/03/02 09:32:28;;;;;;;27.63;15.30;;;5.30;79.60;;;;;;5054950;28;20104;-72
2022/03/02 09:34:57;;;;;;;24.52;12.40;;;5.50;79.20;;;;;;5054483;28;20491;-71
2022/03/02 09:37:25;;;;;;;25.30;13.90;;;5.60;76.60;;;;;;5053440;28;20029;-72
2022/03/02 09:39:52;;;;;;;22.27;13.07;;;5.70;75.40;;;;;;5056128;28;20029;-73
2022/03/02 09:42:31;;;;;;;23.42;13.20;;;5.80;73.90;;;;;;5056014;28;20028;-72
2022/03/02 09:45:03;;;;;;;19.47;12.70;;;5.90;72.50;;;;;;5056192;28;20033;-72
2022/03/02 09:47:49;;;;;;;23.67;13.38;;;6.00;71.00;;;;;;5053957;28;20036;-72
2022/03/02 09:50:17;;;;;;;23.95;12.40;;;6.10;70.30;;;;;;5054185;28;20040;-72
2022/03/02 09:52:45;;;;;;;20.95;12.65;;;6.10;68.90;;;;;;5056110;28;20029;-73
2022/03/02 09:55:14;;;;;;;21.83;12.57;;;6.10;69.00;;;;;;5071448;28;20381;-73
2022/03/02 09:57:43;;;;;;;25.30;13.90;;;6.10;69.50;;;;;;5062333;28;20028;-72
2022/03/02 10:00:10;;;;;;;28.15;13.27;;;6.20;70.00;;;;;;5074173;28;20445;-74
2022/03/02 10:02:38;;;;;;;23.50;13.13;;;6.20;69.80;;;;;;5066807;28;20028;-71
2022/03/02 10:05:16;;;;;;;22.70;13.07;;;6.10;70.00;;;;;;5060527;28;20496;-72
2022/03/02 10:07:50;;;;;;;36.67;13.90;;;6.10;70.50;;;;;;5074132;28;20028;-72
2022/03/02 10:10:22;;;;;;;31.85;13.35;;;6.20;69.50;;;;;;5073188;28;20027;-72
2022/03/02 10:12:47;;;;;;;24.80;13.88;;;6.30;69.40;;;;;;5065446;28;20453;-72
2022/03/02 10:15:14;;;;;;;21.80;13.65;;;6.40;68.40;;;;;;5062721;28;20083;-72
2022/03/02 10:17:43;;;;;;;25.17;13.50;;;6.50;69.10;;;;;;5054004;28;20103;-72
2022/03/02 10:20:17;;;;;;;24.98;13.52;;;6.60;69.20;;;;;;5061280;28;20037;-72
2022/03/02 10:23:20;;;;;;;26.38;14.85;;;6.80;68.60;;;;;;5059102;28;20082;-72
2022/03/02 10:26:10;;;;;;;25.08;13.63;;;7.00;67.40;;;;;;5038338;28;20029;-71
2022/03/02 10:28:44;;;;;;;25.92;13.50;;;7.40;66.10;;;;;;5046346;28;20108;-71
2022/03/02 10:31:26;;;;;;;22.77;13.70;;;7.60;65.80;;;;;;5053503;28;20056;-73
2022/03/02 10:34:00;;;;;;;23.25;13.13;;;7.80;64.00;;;;;;5055051;28;20057;-72
2022/03/02 10:36:30;;;;;;;24.98;13.32;;;7.90;63.30;;;;;;5066655;28;20039;-72
2022/03/02 10:39:03;;;;;;;24.13;12.90;;;7.90;62.90;;;;;;5053718;28;20121;-72
2022/03/02 10:41:32;;;;;;;21.13;13.27;;;7.90;62.60;;;;;;5051945;28;20701;-72
2022/03/02 10:44:03;;;;;;;29.05;14.55;;;7.90;62.30;;;;;;5058842;28;20028;-71
2022/03/02 10:46:29;;;;;;;23.27;14.18;;;7.90;62.30;;;;;;5053062;28;20060;-72
2022/03/02 10:49:05;;;;;;;23.63;13.32;;;7.80;62.20;;;;;;5067565;28;20107;-72
2022/03/02 10:51:34;;;;;;;24.88;13.77;;;7.70;62.20;;;;;;5033853;28;20466;-72
2022/03/02 10:54:05;;;;;;;27.38;13.65;;;7.60;62.70;;;;;;5059292;28;20553;-72
2022/03/02 10:56:41;;;;;;;21.55;13.57;;;7.60;62.80;;;;;;5071119;28;20028;-72
2022/03/02 10:59:08;;;;;;;28.58;13.70;;;7.50;63.10;;;;;;5072269;28;20506;-72
2022/03/02 11:01:35;;;;;;;25.00;13.57;;;7.50;62.70;;;;;;5071443;28;20078;-72
2022/03/02 11:04:02;;;;;;;26.38;13.43;;;7.50;63.00;;;;;;5053802;28;20390;-72
2022/03/02 11:06:29;;;;;;;27.63;13.73;;;7.50;63.00;;;;;;5061204;28;20051;-72
2022/03/02 11:08:55;;;;;;;25.98;14.02;;;7.40;63.30;;;;;;5054624;28;20036;-72
2022/03/02 11:11:24;;;;;;;22.98;13.00;;;7.40;63.60;;;;;;5051001;28;20029;-72
2022/03/02 11:13:51;;;;;;;17.70;13.00;;;7.50;63.10;;;;;;5053241;28;20207;-72
2022/03/02 11:16:21;;;;;;;25.70;13.88;;;7.40;63.40;;;;;;5052352;28;20067;-73
2022/03/02 11:18:52;;;;;;;31.42;13.65;;;7.50;63.10;;;;;;5065308;28;20446;-72
2022/03/02 11:21:20;;;;;;;;;;;7.50;63.60;;;;;;5052344;28;20048;-72
2022/03/02 11:23:54;;;;;;;28.08;13.75;;;7.60;62.80;;;;;;5053181;28;19908;-72
2022/03/02 11:26:29;;;;;;;24.02;14.02;;;7.70;62.90;;;;;;5050854;28;20068;-72
2022/03/02 11:29:01;;;;;;;25.65;13.23;;;7.80;62.80;;;;;;5047719;28;20043;-72
2022/03/02 11:31:32;;;;;;;26.20;13.63;;;7.90;63.10;;;;;;5051969;28;20033;-72
2022/03/02 11:34:22;;;;;;;22.45;13.27;;;8.10;61.50;;;;;;5052620;28;20033;-72
2022/03/02 11:36:52;;;;;;;;;;;8.20;60.90;;;;;;5057402;28;20469;-71
2022/03/02 11:39:23;;;;;;;25.38;13.45;;;8.20;60.90;;;;;;5064794;28;19916;-72
2022/03/02 11:41:54;;;;;;;22.83;13.65;;;8.20;61.80;;;;;;5066311;28;20041;-71
2022/03/02 11:44:41;;;;;;;28.27;13.52;;;8.40;60.90;;;;;;5053730;28;20022;-72
2022/03/02 11:47:13;;;;;;;25.45;14.52;;;8.60;60.20;;;;;;5052225;28;20106;-72
2022/03/02 11:49:45;;;;;;;30.77;15.23;;;8.70;59.90;;;;;;5062062;28;20046;-72
2022/03/02 11:52:29;;;;;;;23.83;14.23;;;8.80;60.10;;;;;;5051629;28;20047;-72
2022/03/02 11:55:10;;;;;;;23.80;13.02;;;8.80;59.70;;;;;;5050851;28;20115;-72
2022/03/02 11:57:42;;;;;;;25.27;14.23;;;8.90;59.20;;;;;;5051664;28;20039;-71
2022/03/02 12:00:18;;;;;;;22.83;13.80;;;9.00;59.80;;;;;;5051093;28;20033;-72
2022/03/02 12:02:44;;;;;;;25.60;14.23;;;9.10;56.90;;;;;;5049996;28;20109;-72
2022/03/02 12:05:10;;;;;;;29.50;14.55;;;9.10;58.00;;;;;;5071488;28;20028;-72
2022/03/02 12:07:44;;;;;;;24.05;14.45;;;9.20;57.40;;;;;;5071697;28;20025;-72
2022/03/02 12:10:34;;;;;;;25.95;13.68;;;9.30;57.40;;;;;;5052740;28;20029;-72
2022/03/02 12:13:00;;;;;;;24.20;14.15;;;9.40;57.90;;;;;;5051533;28;20060;-72
2022/03/02 12:15:40;;;;;;;24.52;13.60;;;9.50;55.70;;;;;;5068537;28;20093;-72
2022/03/02 12:18:10;;;;;;;27.17;14.27;;;9.50;56.40;;;;;;5063716;28;20079;-72
2022/03/02 12:20:51;;;;;;;27.02;13.80;;;9.60;55.40;;;;;;5062344;28;20102;-72
2022/03/02 12:23:24;;;;;;;20.02;13.65;;;9.70;55.20;;;;;;5054483;28;20029;-73
2022/03/02 12:25:50;;;;;;;25.70;13.02;;;9.80;54.90;;;;;;5067282;28;20028;-73
2022/03/02 12:28:18;;;;;;;20.80;13.05;;;10.00;55.10;;;;;;5069012;28;20036;-73
2022/03/02 12:30:44;;;;;;;25.70;13.63;;;10.00;54.00;;;;;;5059780;28;20032;-72
2022/03/02 12:33:10;;;;;;;20.05;12.68;;;10.20;53.90;;;;;;5068564;28;20028;-72
2022/03/02 12:35:37;;;;;;;20.08;12.35;;;10.30;53.90;;;;;;5054215;28;20036;-73